Etusivu
METAR-TAF:

METAR-TAF

Lentoasemat :

Redmond Municipal Airport (Roberts Field)

Redmond, Oregon, Yhdysvallat

Leveyspiiri: 44-15-15N, Pituuspiiri: 121-08-59W, korkeus merenpinnasta: 938 m

Tämänhetkinen sää

Tämä raportti tehtiin 35 minuuttia sitten, kello 04.56 UTC
tyyntä
Lämpötila -1°C
Kosteus 80%
Ilmanpaine 1013 hPa
Näkyvyys: 16.1 km
selkeää

METAR: KRDM 150456Z AUTO 00000KT 10SM CLR M01/M04 A2991 RMK AO2 SLP147 T10111039

Aika: 21:31 (05:31 UTC)

Sääennuste

Tämä raportti tehtiin 6 tuntia ja 11 minuuttia sitten, kello 23.20 UTC
Ennuste voimassa 15. päivästä klo 00 UTC - 15. päivään klo 24 UTC
Tuuli 5 kn eri suunnista
Näkyvyys: 10 km
Hajanaisia pilviä 8000 ft:n korkeudessa
Hajonneita pilviä 18000 ft:n korkeudessa

TAF: KRDM 142320Z 1500/1524 VRB05KT P6SM SCT080 BKN180

Säähavainnot ja -ennusteet yli 4000 lentoasemalta (METAR- ja TAF-raportit).

Käytössä olevat sääasemat on merkitty karttaan keltaisilla ja punaisilla pisteillä.

Aseta hiiri pisteen päälle nähdäksesi sääaseman nimen.

Klikkaa sitten nähdäksesi säähavainnot ja -ennusteet.

Kartan vaihtaminen: klikkaa mustalla rastilla varustettuja vihreitä pisteitä, niin voit zoomata sisään; viivalla varustettua vihreää pistettä, niin voit zoomata ulos tai vihreitä nuolia, niin pääset viereisille kartoille.


METAR-TAF: